N125QA KTEB-KMVY
Flight info
| Callsign | N125QA |
|---|---|
| Flight time | 0h 40m |
| Altitude | 29000 |
| Route | BREZY V39 CMK BAYYS SEALL V188 GON V374 MVY |
| Aircraft | CL60/M-SBDE1E2E3FGHIJ1J4J5J7M3RWXYZ/LB1V1D1 |
Departure
| Time | 2026-05-07 05:55 |
|---|---|
| Airport | Teterboro Airport (KTEB) |
Arrival
| Time | 2026-05-07 06:36 |
|---|---|
| Airport | Martha's Vineyard Airport (KMVY) |
| Time | Latitude | Longitude | Altitude | Speed | Heading |
|---|---|---|---|---|---|
| 2026-05-07 05:23 | 40.85266 | -74.06597 | 11 ft | 0 kts | 219° |
| 2026-05-07 05:49 | 40.85255 | -74.06606 | 11 ft | 4 kts | 199° |
| 2026-05-07 05:49 | 40.85230 | -74.06591 | 11 ft | 5 kts | 88° |
| 2026-05-07 05:49 | 40.85236 | -74.06503 | 11 ft | 12 kts | 81° |
| 2026-05-07 05:49 | 40.85235 | -74.06402 | 11 ft | 9 kts | 157° |
| 2026-05-07 05:50 | 40.85169 | -74.06345 | 11 ft | 13 kts | 139° |
| 2026-05-07 05:50 | 40.85092 | -74.06253 | 11 ft | 16 kts | 138° |
| 2026-05-07 05:50 | 40.85001 | -74.06146 | 11 ft | 17 kts | 138° |
| 2026-05-07 05:50 | 40.84908 | -74.06107 | 11 ft | 15 kts | 184° |
| 2026-05-07 05:51 | 40.84790 | -74.06117 | 11 ft | 18 kts | 183° |
| 2026-05-07 05:51 | 40.84650 | -74.06127 | 11 ft | 21 kts | 184° |
| 2026-05-07 05:51 | 40.84493 | -74.06139 | 11 ft | 23 kts | 185° |
| 2026-05-07 05:51 | 40.84352 | -74.06147 | 11 ft | 14 kts | 180° |
| 2026-05-07 05:52 | 40.84266 | -74.06152 | 11 ft | 17 kts | 184° |
| 2026-05-07 05:52 | 40.84227 | -74.06156 | 11 ft | 18 kts | 185° |
| 2026-05-07 05:52 | 40.84092 | -74.06166 | 11 ft | 20 kts | 178° |
| 2026-05-07 05:53 | 40.83944 | -74.06178 | 11 ft | 13 kts | 184° |
| 2026-05-07 05:53 | 40.83899 | -74.06178 | 11 ft | 2 kts | 156° |
| 2026-05-07 05:53 | 40.83884 | -74.06154 | 11 ft | 0 kts | 101° |
| 2026-05-07 05:53 | 40.83884 | -74.06151 | 11 ft | 0 kts | 98° |
| 2026-05-07 05:54 | 40.83884 | -74.06150 | 11 ft | 0 kts | 97° |
| 2026-05-07 05:54 | 40.83883 | -74.06137 | 11 ft | 5 kts | 94° |
| 2026-05-07 05:54 | 40.83889 | -74.06044 | 11 ft | 8 kts | 43° |
| 2026-05-07 05:55 | 40.83953 | -74.06033 | 11 ft | 10 kts | 3° |
| 2026-05-07 05:55 | 40.84244 | -74.06011 | 11 ft | 91 kts | 4° |
| 2026-05-07 05:55 | 40.85179 | -74.05926 | 120 ft | 165 kts | 3° |
| 2026-05-07 05:55 | 40.86357 | -74.05801 | 965 ft | 180 kts | 4° |
| 2026-05-07 05:56 | 40.87582 | -74.05675 | 2103 ft | 184 kts | 2° |
| 2026-05-07 05:56 | 40.88891 | -74.05496 | 3204 ft | 200 kts | 2° |
| 2026-05-07 05:56 | 40.90347 | -74.05277 | 3964 ft | 233 kts | 0° |
| 2026-05-07 05:56 | 40.90850 | -74.05246 | 4190 ft | 241 kts | 354° |
| 2026-05-07 05:57 | 40.92365 | -74.05610 | 5081 ft | 254 kts | 340° |
| 2026-05-07 05:57 | 40.94103 | -74.06229 | 6270 ft | 268 kts | 338° |
| 2026-05-07 05:57 | 40.95892 | -74.06866 | 7590 ft | 275 kts | 337° |
| 2026-05-07 05:57 | 40.97757 | -74.07504 | 8785 ft | 285 kts | 337° |
| 2026-05-07 05:58 | 40.99691 | -74.08154 | 9938 ft | 295 kts | 336° |
| 2026-05-07 05:58 | 41.01688 | -74.08822 | 11071 ft | 304 kts | 336° |
| 2026-05-07 05:58 | 41.03766 | -74.09515 | 12179 ft | 313 kts | 336° |
| 2026-05-07 05:58 | 41.05873 | -74.10214 | 13279 ft | 319 kts | 335° |
| 2026-05-07 05:59 | 41.08056 | -74.10926 | 14272 ft | 330 kts | 339° |
| 2026-05-07 05:59 | 41.10357 | -74.11199 | 15304 ft | 347 kts | 354° |
| 2026-05-07 05:59 | 41.12782 | -74.10632 | 16461 ft | 359 kts | 12° |
| 2026-05-07 05:59 | 41.15021 | -74.09189 | 17387 ft | 372 kts | 31° |
| 2026-05-07 06:00 | 41.16909 | -74.06763 | 18331 ft | 382 kts | 53° |
| 2026-05-07 06:00 | 41.18066 | -74.03586 | 19034 ft | 392 kts | 73° |
| 2026-05-07 06:00 | 41.18846 | -74.00064 | 19612 ft | 404 kts | 75° |
| 2026-05-07 06:00 | 41.19641 | -73.96450 | 20242 ft | 415 kts | 75° |
| 2026-05-07 06:01 | 41.20455 | -73.92755 | 20878 ft | 423 kts | 74° |
| 2026-05-07 06:01 | 41.21291 | -73.88952 | 21517 ft | 433 kts | 73° |
| 2026-05-07 06:01 | 41.22142 | -73.85080 | 22178 ft | 440 kts | 73° |
| 2026-05-07 06:01 | 41.22997 | -73.81193 | 22750 ft | 449 kts | 73° |
| 2026-05-07 06:02 | 41.23883 | -73.77158 | 23311 ft | 459 kts | 74° |
| 2026-05-07 06:02 | 41.24769 | -73.73113 | 23937 ft | 464 kts | 73° |
| 2026-05-07 06:02 | 41.25679 | -73.68953 | 24590 ft | 470 kts | 73° |
| 2026-05-07 06:02 | 41.26596 | -73.64752 | 25236 ft | 474 kts | 74° |
| 2026-05-07 06:03 | 41.27516 | -73.60516 | 25817 ft | 481 kts | 74° |
| 2026-05-07 06:03 | 41.28070 | -73.56162 | 26359 ft | 484 kts | 92° |
| 2026-05-07 06:03 | 41.28154 | -73.51646 | 26831 ft | 491 kts | 93° |
| 2026-05-07 06:03 | 41.28226 | -73.47098 | 27350 ft | 497 kts | 92° |
| 2026-05-07 06:04 | 41.28301 | -73.42497 | 27838 ft | 503 kts | 92° |
| 2026-05-07 06:04 | 41.28374 | -73.37873 | 28358 ft | 507 kts | 93° |
| 2026-05-07 06:04 | 41.28447 | -73.33164 | 28772 ft | 514 kts | 95° |
| 2026-05-07 06:04 | 41.28517 | -73.28383 | 28843 ft | 530 kts | 94° |
| 2026-05-07 06:05 | 41.28588 | -73.23395 | 28860 ft | 545 kts | 94° |
| 2026-05-07 06:05 | 41.28661 | -73.18273 | 28854 ft | 560 kts | 94° |
| 2026-05-07 06:05 | 41.28731 | -73.13086 | 28839 ft | 573 kts | 93° |
| 2026-05-07 06:05 | 41.28861 | -73.07699 | 28843 ft | 586 kts | 89° |
| 2026-05-07 06:06 | 41.29570 | -73.02340 | 28843 ft | 596 kts | 76° |
| 2026-05-07 06:06 | 41.30988 | -72.97185 | 28841 ft | 596 kts | 65° |
| 2026-05-07 06:06 | 41.32477 | -72.92038 | 28829 ft | 595 kts | 69° |
| 2026-05-07 06:07 | 41.34797 | -72.81576 | 28835 ft | 589 kts | 77° |
| 2026-05-07 06:07 | 41.36251 | -72.70908 | 28846 ft | 586 kts | 85° |
| 2026-05-07 06:08 | 41.36840 | -72.60176 | 28831 ft | 581 kts | 92° |
| 2026-05-07 06:08 | 41.36586 | -72.49686 | 28840 ft | 550 kts | 101° |
| 2026-05-07 06:08 | 41.36216 | -72.44707 | 28835 ft | 532 kts | 101° |
| 2026-05-07 06:09 | 41.35833 | -72.39787 | 28830 ft | 538 kts | 101° |
| 2026-05-07 06:09 | 41.35439 | -72.34826 | 28834 ft | 553 kts | 102° |
| 2026-05-07 06:09 | 41.35026 | -72.29657 | 28820 ft | 566 kts | 102° |
| 2026-05-07 06:10 | 41.34182 | -72.19105 | 28809 ft | 578 kts | 101° |
| 2026-05-07 06:10 | 41.33331 | -72.08527 | 28812 ft | 574 kts | 102° |
| 2026-05-07 06:10 | 41.33144 | -72.03220 | 28815 ft | 578 kts | 91° |
| 2026-05-07 06:11 | 41.33402 | -71.97955 | 28802 ft | 578 kts | 88° |
| 2026-05-07 06:11 | 41.33960 | -71.87311 | 28814 ft | 575 kts | 89° |
| 2026-05-07 06:11 | 41.34228 | -71.82107 | 28735 ft | 562 kts | 88° |
| 2026-05-07 06:12 | 41.34488 | -71.76980 | 28130 ft | 557 kts | 88° |
| 2026-05-07 06:12 | 41.34746 | -71.71833 | 27498 ft | 551 kts | 89° |
| 2026-05-07 06:12 | 41.34993 | -71.66820 | 26889 ft | 546 kts | 88° |
| 2026-05-07 06:12 | 41.35236 | -71.61855 | 26238 ft | 538 kts | 88° |
| 2026-05-07 06:13 | 41.35476 | -71.56911 | 25608 ft | 529 kts | 88° |
| 2026-05-07 06:13 | 41.35706 | -71.52127 | 25209 ft | 514 kts | 88° |
| 2026-05-07 06:13 | 41.35929 | -71.47459 | 25072 ft | 492 kts | 88° |
| 2026-05-07 06:13 | 41.36141 | -71.42977 | 24530 ft | 483 kts | 88° |
| 2026-05-07 06:14 | 41.36344 | -71.38612 | 23823 ft | 480 kts | 88° |
| 2026-05-07 06:14 | 41.36549 | -71.34199 | 23091 ft | 475 kts | 89° |
| 2026-05-07 06:14 | 41.36749 | -71.29816 | 22369 ft | 470 kts | 88° |
| 2026-05-07 06:14 | 41.36943 | -71.25549 | 21655 ft | 463 kts | 88° |
| 2026-05-07 06:15 | 41.37135 | -71.21322 | 20922 ft | 457 kts | 89° |
| 2026-05-07 06:15 | 41.37321 | -71.17154 | 20181 ft | 450 kts | 89° |
| 2026-05-07 06:15 | 41.37503 | -71.13039 | 19431 ft | 443 kts | 89° |
| 2026-05-07 06:15 | 41.37680 | -71.09006 | 18676 ft | 435 kts | 89° |
| 2026-05-07 06:16 | 41.37854 | -71.05023 | 17919 ft | 428 kts | 89° |
| 2026-05-07 06:16 | 41.38023 | -71.01122 | 17342 ft | 415 kts | 89° |
| 2026-05-07 06:16 | 41.38183 | -70.97444 | 17219 ft | 391 kts | 89° |
| 2026-05-07 06:16 | 41.38335 | -70.93909 | 16786 ft | 381 kts | 90° |
| 2026-05-07 06:17 | 41.38482 | -70.90426 | 16244 ft | 375 kts | 90° |
| 2026-05-07 06:17 | 41.38626 | -70.86993 | 15646 ft | 371 kts | 90° |
| 2026-05-07 06:17 | 41.38776 | -70.83598 | 15041 ft | 369 kts | 88° |
| 2026-05-07 06:17 | 41.39413 | -70.80335 | 14552 ft | 364 kts | 63° |
| 2026-05-07 06:18 | 41.40877 | -70.77668 | 13942 ft | 359 kts | 43° |
| 2026-05-07 06:18 | 41.42674 | -70.75336 | 13349 ft | 355 kts | 40° |
| 2026-05-07 06:18 | 41.44428 | -70.73086 | 12802 ft | 351 kts | 41° |
| 2026-05-07 06:18 | 41.46177 | -70.70863 | 12186 ft | 349 kts | 40° |
| 2026-05-07 06:19 | 41.47907 | -70.68636 | 11704 ft | 342 kts | 41° |
| 2026-05-07 06:19 | 41.49597 | -70.66461 | 11150 ft | 339 kts | 41° |
| 2026-05-07 06:19 | 41.51294 | -70.64289 | 10532 ft | 337 kts | 41° |
| 2026-05-07 06:19 | 41.52975 | -70.62123 | 10019 ft | 331 kts | 40° |
| 2026-05-07 06:20 | 41.54614 | -70.60015 | 9489 ft | 327 kts | 41° |
| 2026-05-07 06:20 | 41.56222 | -70.57938 | 8956 ft | 322 kts | 40° |
| 2026-05-07 06:20 | 41.57835 | -70.55883 | 8450 ft | 321 kts | 40° |
| 2026-05-07 06:20 | 41.59434 | -70.53843 | 8215 ft | 312 kts | 40° |
| 2026-05-07 06:21 | 41.60986 | -70.51847 | 7870 ft | 309 kts | 40° |
| 2026-05-07 06:21 | 41.62517 | -70.49891 | 7593 ft | 303 kts | 40° |
| 2026-05-07 06:21 | 41.64033 | -70.47945 | 7222 ft | 301 kts | 40° |
| 2026-05-07 06:21 | 41.65548 | -70.46004 | 6856 ft | 298 kts | 40° |
| 2026-05-07 06:22 | 41.67033 | -70.44112 | 6578 ft | 292 kts | 40° |
| 2026-05-07 06:22 | 41.69948 | -70.40393 | 5907 ft | 286 kts | 41° |
| 2026-05-07 06:22 | 41.71373 | -70.38567 | 5553 ft | 284 kts | 40° |
| 2026-05-07 06:23 | 41.72795 | -70.36749 | 5200 ft | 281 kts | 40° |
| 2026-05-07 06:23 | 41.74191 | -70.34954 | 4827 ft | 280 kts | 41° |
| 2026-05-07 06:23 | 41.75594 | -70.33144 | 4494 ft | 276 kts | 41° |
| 2026-05-07 06:23 | 41.76971 | -70.31375 | 4111 ft | 275 kts | 40° |
| 2026-05-07 06:24 | 41.78194 | -70.29442 | 3743 ft | 274 kts | 61° |
| 2026-05-07 06:24 | 41.78576 | -70.27027 | 3516 ft | 262 kts | 101° |
| 2026-05-07 06:24 | 41.77845 | -70.24897 | 3616 ft | 256 kts | 136° |
| 2026-05-07 06:24 | 41.76501 | -70.23362 | 3613 ft | 251 kts | 155° |
| 2026-05-07 06:25 | 41.74913 | -70.22480 | 3623 ft | 242 kts | 174° |
| 2026-05-07 06:25 | 41.73266 | -70.22276 | 3633 ft | 234 kts | 190° |
| 2026-05-07 06:25 | 41.71688 | -70.22692 | 3632 ft | 228 kts | 205° |
| 2026-05-07 06:25 | 41.70300 | -70.23634 | 3631 ft | 222 kts | 219° |
| 2026-05-07 06:26 | 41.69122 | -70.24983 | 3638 ft | 222 kts | 227° |
| 2026-05-07 06:26 | 41.68004 | -70.26430 | 3636 ft | 223 kts | 227° |
| 2026-05-07 06:26 | 41.66898 | -70.27850 | 3610 ft | 212 kts | 227° |
| 2026-05-07 06:26 | 41.65887 | -70.29140 | 3629 ft | 190 kts | 227° |
| 2026-05-07 06:27 | 41.64941 | -70.30353 | 3668 ft | 189 kts | 227° |
| 2026-05-07 06:27 | 41.64011 | -70.31548 | 3652 ft | 180 kts | 227° |
| 2026-05-07 06:27 | 41.63141 | -70.32656 | 3651 ft | 165 kts | 228° |
| 2026-05-07 06:27 | 41.62317 | -70.33712 | 3647 ft | 163 kts | 227° |
| 2026-05-07 06:28 | 41.61491 | -70.34772 | 3645 ft | 163 kts | 228° |
| 2026-05-07 06:28 | 41.60685 | -70.35804 | 3634 ft | 163 kts | 228° |
| 2026-05-07 06:28 | 41.59856 | -70.36868 | 3405 ft | 165 kts | 229° |
| 2026-05-07 06:28 | 41.59044 | -70.37907 | 3228 ft | 160 kts | 228° |
| 2026-05-07 06:29 | 41.58237 | -70.38940 | 3021 ft | 162 kts | 229° |
| 2026-05-07 06:29 | 41.57410 | -70.39996 | 2790 ft | 163 kts | 228° |
| 2026-05-07 06:29 | 41.56594 | -70.41039 | 2582 ft | 164 kts | 228° |
| 2026-05-07 06:29 | 41.55775 | -70.42079 | 2364 ft | 160 kts | 229° |
| 2026-05-07 06:30 | 41.54993 | -70.43074 | 2126 ft | 146 kts | 229° |
| 2026-05-07 06:30 | 41.54317 | -70.43920 | 1982 ft | 122 kts | 231° |
| 2026-05-07 06:30 | 41.53707 | -70.44695 | 1815 ft | 120 kts | 231° |
| 2026-05-07 06:30 | 41.53104 | -70.45444 | 1682 ft | 117 kts | 229° |
| 2026-05-07 06:31 | 41.52483 | -70.46162 | 1676 ft | 119 kts | 229° |
| 2026-05-07 06:31 | 41.51872 | -70.46867 | 1685 ft | 117 kts | 227° |
| 2026-05-07 06:31 | 41.51241 | -70.47589 | 1667 ft | 119 kts | 226° |
| 2026-05-07 06:31 | 41.50618 | -70.48304 | 1691 ft | 117 kts | 224° |
| 2026-05-07 06:32 | 41.49994 | -70.49017 | 1684 ft | 119 kts | 227° |
| 2026-05-07 06:32 | 41.49364 | -70.49732 | 1673 ft | 116 kts | 227° |
| 2026-05-07 06:32 | 41.48742 | -70.50446 | 1709 ft | 118 kts | 229° |
| 2026-05-07 06:32 | 41.48116 | -70.51166 | 1695 ft | 119 kts | 226° |
| 2026-05-07 06:33 | 41.47489 | -70.51872 | 1689 ft | 117 kts | 227° |
| 2026-05-07 06:33 | 41.46850 | -70.52595 | 1665 ft | 121 kts | 228° |
| 2026-05-07 06:33 | 41.46228 | -70.53308 | 1683 ft | 119 kts | 229° |
| 2026-05-07 06:33 | 41.45590 | -70.54044 | 1558 ft | 122 kts | 227° |
| 2026-05-07 06:34 | 41.44951 | -70.54768 | 1436 ft | 121 kts | 227° |
| 2026-05-07 06:34 | 41.44310 | -70.55497 | 1240 ft | 121 kts | 225° |
| 2026-05-07 06:34 | 41.43674 | -70.56232 | 1077 ft | 120 kts | 228° |
| 2026-05-07 06:34 | 41.43038 | -70.56951 | 908 ft | 122 kts | 224° |
| 2026-05-07 06:35 | 41.42394 | -70.57684 | 757 ft | 120 kts | 226° |
| 2026-05-07 06:35 | 41.41753 | -70.58415 | 586 ft | 121 kts | 223° |
| 2026-05-07 06:35 | 41.41110 | -70.59153 | 428 ft | 123 kts | 222° |
| 2026-05-07 06:35 | 41.40464 | -70.59894 | 267 ft | 128 kts | 223° |
| 2026-05-07 06:36 | 41.39808 | -70.60633 | 88 ft | 125 kts | 222° |
| 2026-05-07 06:36 | 41.39204 | -70.61321 | 59 ft | 103 kts | 221° |
| 2026-05-07 06:36 | 41.38887 | -70.61684 | 55 ft | 33 kts | 221° |
| 2026-05-07 06:36 | 41.38833 | -70.61689 | 54 ft | 11 kts | 129° |
| 2026-05-07 06:37 | 41.38796 | -70.61633 | 53 ft | 0 kts | 126° |
| 2026-05-07 06:37 | 41.38792 | -70.61620 | 53 ft | 5 kts | 104° |
| 2026-05-07 06:38 | 41.38821 | -70.61566 | 53 ft | 9 kts | 41° |
| 2026-05-07 06:38 | 41.38878 | -70.61504 | 55 ft | 11 kts | 41° |
| 2026-05-07 06:38 | 41.38892 | -70.61486 | 55 ft | 5 kts | 45° |
| 2026-05-07 06:38 | 41.38892 | -70.61429 | 55 ft | 8 kts | 129° |
| 2026-05-07 06:39 | 41.38869 | -70.61392 | 54 ft | 2 kts | 130° |
| 2026-05-07 06:39 | 41.38857 | -70.61390 | 54 ft | 2 kts | 219° |
| 2026-05-07 06:39 | 41.38853 | -70.61395 | 54 ft | 0 kts | 222° |